createdAt,value
2024-04-24T00:00:42.717Z,34.36
2024-04-24T00:01:42.755Z,34.31
2024-04-24T00:02:42.828Z,34.28
2024-04-24T00:03:42.940Z,34.32
2024-04-24T00:04:42.871Z,34.36
2024-04-24T00:05:42.911Z,34.32
2024-04-24T00:06:42.950Z,34.35
2024-04-24T00:07:42.993Z,34.33
2024-04-24T00:08:43.026Z,34.35
2024-04-24T00:09:43.052Z,34.36
2024-04-24T00:10:43.150Z,34.35
2024-04-24T00:11:43.223Z,34.32
2024-04-24T00:12:43.147Z,34.32
2024-04-24T00:13:43.170Z,34.35
2024-04-24T00:14:43.208Z,34.34
2024-04-24T00:15:43.246Z,34.30
2024-04-24T00:16:43.270Z,34.32
2024-04-24T00:17:43.336Z,34.32
2024-04-24T00:18:43.435Z,34.32
2024-04-24T00:19:43.386Z,34.32
2024-04-24T00:20:43.417Z,34.31
2024-04-24T00:21:43.442Z,34.28
2024-04-24T00:22:43.483Z,34.31
2024-04-24T00:23:43.498Z,34.27
2024-04-24T00:24:43.525Z,34.32
2024-04-24T00:25:43.567Z,34.30
2024-04-24T00:26:43.603Z,34.26
2024-04-24T00:27:43.643Z,34.30
2024-04-24T00:28:43.677Z,34.27
2024-04-24T00:29:43.711Z,34.30
2024-04-24T00:30:43.741Z,34.30
2024-04-24T00:31:43.786Z,34.28
2024-04-24T00:32:43.917Z,34.28
2024-04-24T00:33:43.916Z,34.30
2024-04-24T00:34:43.863Z,34.29
2024-04-24T00:35:43.902Z,34.23
2024-04-24T00:36:43.922Z,34.28
2024-04-24T00:37:43.964Z,34.24
2024-04-24T00:38:44.000Z,34.31
2024-04-24T00:39:44.028Z,34.30
2024-04-24T00:40:44.062Z,34.27
2024-04-24T00:41:44.085Z,34.31
2024-04-24T00:42:44.114Z,34.28
2024-04-24T00:43:44.145Z,34.28
2024-04-24T00:44:44.175Z,34.28
2024-04-24T00:45:47.545Z,34.27
2024-04-24T00:46:44.230Z,34.31
2024-04-24T00:47:44.271Z,34.24
2024-04-24T00:48:44.289Z,34.25
2024-04-24T00:49:44.259Z,34.26
2024-04-24T00:50:44.253Z,34.27
2024-04-24T00:51:44.259Z,34.27
2024-04-24T00:52:44.290Z,34.24
2024-04-24T00:53:44.303Z,34.23
2024-04-24T00:54:44.310Z,34.28
2024-04-24T00:55:44.321Z,34.28
2024-04-24T00:56:44.312Z,34.28
2024-04-24T00:57:44.318Z,34.22
2024-04-24T00:58:44.337Z,34.25
2024-04-24T00:59:44.357Z,34.24
2024-04-24T01:00:44.434Z,34.27
2024-04-24T01:01:44.360Z,34.28
2024-04-24T01:02:44.422Z,34.22
2024-04-24T01:03:44.469Z,34.24
2024-04-24T01:04:44.413Z,34.23
2024-04-24T01:05:44.430Z,34.24
2024-04-24T01:06:45.295Z,34.25
2024-04-24T01:07:44.471Z,34.24
2024-04-24T01:08:44.503Z,34.23
2024-04-24T01:09:44.499Z,34.22
2024-04-24T01:10:44.548Z,34.26
2024-04-24T01:11:44.584Z,34.22
2024-04-24T01:12:44.548Z,34.23
2024-04-24T01:13:44.664Z,34.21
2024-04-24T01:14:44.597Z,34.21
2024-04-24T01:15:44.621Z,34.22
2024-04-24T01:16:44.640Z,34.24
2024-04-24T01:17:44.798Z,34.22
2024-04-24T01:18:44.700Z,34.23
2024-04-24T01:19:44.696Z,34.22
2024-04-24T01:20:44.733Z,34.18
2024-04-24T01:21:44.740Z,34.22
2024-04-24T01:22:44.863Z,34.17
2024-04-24T01:23:44.792Z,34.24
2024-04-24T01:24:44.803Z,34.21
2024-04-24T01:25:44.913Z,34.18
2024-04-24T01:26:44.813Z,34.22
2024-04-24T01:27:44.825Z,34.16
2024-04-24T01:28:44.888Z,34.18
2024-04-24T01:29:44.877Z,34.16
2024-04-24T01:30:44.853Z,34.18
2024-04-24T01:31:44.932Z,34.22
2024-04-24T01:32:45.013Z,34.20
2024-04-24T01:33:44.949Z,34.23
2024-04-24T01:34:44.983Z,34.19
2024-04-24T01:35:44.924Z,34.21
2024-04-24T01:36:44.971Z,34.22
2024-04-24T01:37:45.127Z,34.20
2024-04-24T01:38:45.014Z,34.19
2024-04-24T01:39:45.042Z,34.21
2024-04-24T01:40:45.102Z,34.17
2024-04-24T01:41:45.136Z,34.19
2024-04-24T01:42:45.149Z,34.19
2024-04-24T01:43:45.241Z,34.17
2024-04-24T01:44:45.244Z,34.16
2024-04-24T01:45:45.247Z,34.16
2024-04-24T01:46:45.348Z,34.17
2024-04-24T01:47:45.412Z,34.14
2024-04-24T01:48:45.430Z,34.16
2024-04-24T01:49:45.482Z,34.14
2024-04-24T01:50:45.442Z,34.12
2024-04-24T01:51:45.511Z,34.16
2024-04-24T01:52:45.617Z,34.10
2024-04-24T01:53:45.575Z,34.12
2024-04-24T01:54:45.612Z,34.10
2024-04-24T01:55:45.689Z,34.10
2024-04-24T01:56:45.708Z,34.10
2024-04-24T01:57:45.729Z,34.07
2024-04-24T01:58:45.776Z,34.07
2024-04-24T01:59:45.782Z,34.09
2024-04-24T02:00:45.844Z,34.09
2024-04-24T02:01:45.874Z,34.07
2024-04-24T02:02:45.917Z,34.06
2024-04-24T02:03:45.982Z,34.05
2024-04-24T02:04:46.017Z,34.09
2024-04-24T02:05:46.040Z,34.02
2024-04-24T02:06:46.077Z,34.01
2024-04-24T02:07:46.138Z,34.06
2024-04-24T02:08:46.150Z,34.01
2024-04-24T02:09:46.193Z,34.00
2024-04-24T02:10:46.235Z,34.00
2024-04-24T02:11:51.301Z,33.99
2024-04-24T02:12:47.331Z,34.01
2024-04-24T02:13:46.438Z,33.96
2024-04-24T02:14:46.303Z,34.00
2024-04-24T02:15:46.319Z,33.99
2024-04-24T02:16:46.358Z,33.96
2024-04-24T02:17:46.450Z,33.98
2024-04-24T02:18:46.437Z,34.00
2024-04-24T02:19:46.406Z,33.98
2024-04-24T02:20:46.394Z,33.96
2024-04-24T02:21:46.398Z,33.97
2024-04-24T02:22:46.413Z,33.95
2024-04-24T02:23:46.440Z,33.98
2024-04-24T02:24:46.444Z,33.98
2024-04-24T02:25:46.452Z,33.96
2024-04-24T02:26:46.470Z,33.95
2024-04-24T02:27:46.502Z,33.95
2024-04-24T02:28:46.557Z,33.94
2024-04-24T02:29:52.053Z,33.98
2024-04-24T02:30:47.529Z,33.96
2024-04-24T02:31:46.553Z,33.96
2024-04-24T02:32:46.695Z,33.92
2024-04-24T02:33:46.590Z,33.94
2024-04-24T02:34:46.576Z,33.93
2024-04-24T02:35:46.590Z,33.94
2024-04-24T02:36:46.602Z,33.94
2024-04-24T02:37:46.648Z,33.95
2024-04-24T02:38:46.649Z,33.95
2024-04-24T02:39:46.685Z,33.94
2024-04-24T02:40:46.687Z,33.96
2024-04-24T02:41:46.660Z,33.91
2024-04-24T02:42:46.688Z,33.94
2024-04-24T02:43:47.306Z,33.99
2024-04-24T02:44:46.698Z,33.98
2024-04-24T02:45:46.705Z,33.98
2024-04-24T02:46:46.730Z,33.95
2024-04-24T02:47:46.848Z,33.91
2024-04-24T02:48:46.803Z,33.92
2024-04-24T02:49:46.794Z,33.91
2024-04-24T02:50:46.770Z,33.95
2024-04-24T02:51:46.774Z,33.96
2024-04-24T02:52:46.831Z,33.94
2024-04-24T02:53:46.790Z,33.93
2024-04-24T02:54:46.806Z,33.96
2024-04-24T02:55:46.828Z,33.96
2024-04-24T02:56:48.684Z,33.95
2024-04-24T02:57:46.823Z,33.97
2024-04-24T02:58:46.869Z,33.90
2024-04-24T02:59:46.844Z,33.94
2024-04-24T03:00:46.890Z,33.94
2024-04-24T03:01:46.938Z,33.97
2024-04-24T03:02:46.987Z,33.96
2024-04-24T03:03:46.948Z,33.94
2024-04-24T03:04:46.915Z,33.95
2024-04-24T03:05:46.916Z,33.96
2024-04-24T03:06:46.931Z,33.93
2024-04-24T03:07:46.952Z,33.96
2024-04-24T03:08:46.956Z,33.93
2024-04-24T03:09:46.968Z,33.95
2024-04-24T03:10:47.042Z,33.96
2024-04-24T03:11:47.026Z,33.96
2024-04-24T03:12:47.009Z,33.94
2024-04-24T03:13:47.042Z,33.97
2024-04-24T03:14:47.062Z,33.92
2024-04-24T03:15:47.055Z,33.94
2024-04-24T03:16:47.095Z,33.98
2024-04-24T03:17:47.207Z,33.93
2024-04-24T03:18:47.056Z,33.96
2024-04-24T03:19:47.090Z,33.94
2024-04-24T03:20:47.115Z,33.97
2024-04-24T03:21:47.104Z,33.92
2024-04-24T03:22:47.121Z,33.98
2024-04-24T03:23:47.139Z,33.93
2024-04-24T03:24:47.119Z,33.98
2024-04-24T03:25:47.160Z,33.91
2024-04-24T03:26:47.139Z,33.92
2024-04-24T03:27:47.140Z,33.94
2024-04-24T03:28:47.183Z,33.92
2024-04-24T03:29:47.159Z,33.92
2024-04-24T03:30:47.176Z,33.91
2024-04-24T03:31:47.242Z,33.93
2024-04-24T03:32:47.428Z,33.94
2024-04-24T03:33:47.257Z,33.91
2024-04-24T03:34:47.271Z,33.91
2024-04-24T03:35:47.230Z,33.93
2024-04-24T03:36:47.260Z,33.96
2024-04-24T03:37:47.288Z,33.94
2024-04-24T03:38:47.256Z,33.87
2024-04-24T03:39:47.260Z,33.90
2024-04-24T03:40:47.291Z,33.87
2024-04-24T03:41:47.287Z,33.87
2024-04-24T03:42:47.305Z,33.89
2024-04-24T03:43:47.357Z,33.87
2024-04-24T03:44:47.321Z,33.86
2024-04-24T03:45:47.323Z,33.92
2024-04-24T03:46:47.376Z,33.90
2024-04-24T03:47:47.427Z,33.88
2024-04-24T03:48:47.465Z,33.86
2024-04-24T03:49:47.412Z,33.87
2024-04-24T03:50:47.389Z,33.88
2024-04-24T03:51:47.406Z,33.91
2024-04-24T03:52:47.427Z,33.87
2024-04-24T03:53:47.417Z,33.88
2024-04-24T03:54:47.421Z,33.83
2024-04-24T03:55:47.436Z,33.87
2024-04-24T03:56:47.425Z,33.86
2024-04-24T03:57:47.424Z,33.89
2024-04-24T03:58:47.521Z,33.84
2024-04-24T03:59:47.449Z,33.85
2024-04-24T04:00:47.560Z,33.86
2024-04-24T04:01:47.556Z,33.84
2024-04-24T04:02:47.539Z,33.84
2024-04-24T04:03:47.580Z,33.86
2024-04-24T04:04:47.563Z,33.88
2024-04-24T04:05:47.536Z,33.83
2024-04-24T04:06:47.539Z,33.86
2024-04-24T04:07:47.559Z,33.87
2024-04-24T04:08:47.553Z,33.82
2024-04-24T04:09:47.551Z,33.87
2024-04-24T04:10:47.633Z,33.84
2024-04-24T04:11:47.689Z,33.86
2024-04-24T04:12:47.591Z,33.86
2024-04-24T04:13:47.610Z,33.83
2024-04-24T04:14:47.591Z,33.86
2024-04-24T04:15:47.612Z,33.84
2024-04-24T04:16:47.628Z,33.86
2024-04-24T04:17:47.867Z,33.85
2024-04-24T04:18:47.666Z,33.81
2024-04-24T04:19:47.686Z,33.88
2024-04-24T04:20:47.652Z,33.82
2024-04-24T04:21:47.669Z,33.84
2024-04-24T04:22:47.720Z,33.83
2024-04-24T04:23:47.674Z,33.85
2024-04-24T04:24:47.681Z,33.85
2024-04-24T04:25:47.695Z,33.83
2024-04-24T04:26:47.688Z,33.82
2024-04-24T04:27:47.697Z,33.86
2024-04-24T04:28:47.749Z,33.82
2024-04-24T04:29:47.715Z,33.82
2024-04-24T04:30:47.721Z,33.81
2024-04-24T04:31:47.741Z,33.82
2024-04-24T04:32:47.800Z,33.81
2024-04-24T04:33:47.792Z,33.83
2024-04-24T04:34:47.763Z,33.81
2024-04-24T04:35:47.749Z,33.83
2024-04-24T04:36:47.755Z,33.83
2024-04-24T04:37:47.797Z,33.81
2024-04-24T04:38:47.780Z,33.82
2024-04-24T04:39:47.781Z,33.82
2024-04-24T04:40:47.829Z,33.82
2024-04-24T04:41:47.793Z,33.80
2024-04-24T04:42:47.799Z,33.77
2024-04-24T04:43:47.841Z,33.76
2024-04-24T04:44:47.817Z,33.81
2024-04-24T04:45:47.823Z,33.81
2024-04-24T04:46:47.913Z,33.80
2024-04-24T04:47:48.063Z,33.78
2024-04-24T04:48:55.443Z,33.82
2024-04-24T04:49:55.408Z,33.81
2024-04-24T04:50:55.419Z,33.84
2024-04-24T04:51:55.429Z,33.84
2024-04-24T04:52:55.501Z,33.81
2024-04-24T04:53:55.482Z,33.81
2024-04-24T04:54:55.476Z,33.76
2024-04-24T04:55:55.621Z,33.75
2024-04-24T04:56:55.504Z,33.77
2024-04-24T04:57:55.577Z,33.77
2024-04-24T04:58:55.599Z,33.77
2024-04-24T04:59:55.555Z,33.77
2024-04-24T05:00:55.595Z,33.78
2024-04-24T05:01:58.989Z,33.76
2024-04-24T05:02:55.607Z,33.78
2024-04-24T05:03:55.610Z,33.77
2024-04-24T05:04:55.644Z,33.81
2024-04-24T05:05:55.623Z,33.79
2024-04-24T05:06:55.644Z,33.75
2024-04-24T05:07:55.684Z,33.76
2024-04-24T05:08:55.689Z,33.79
2024-04-24T05:09:55.696Z,33.77
2024-04-24T05:10:55.784Z,33.75
2024-04-24T05:11:55.776Z,33.77
2024-04-24T05:12:55.732Z,33.71
2024-04-24T05:13:55.776Z,33.78
2024-04-24T05:14:55.751Z,33.77
2024-04-24T05:15:55.778Z,33.74
2024-04-24T05:16:55.903Z,33.77
2024-04-24T05:17:55.873Z,33.76
2024-04-24T05:18:55.903Z,33.73
2024-04-24T05:19:55.834Z,33.70
2024-04-24T05:20:55.837Z,33.75
2024-04-24T05:21:55.838Z,33.70
2024-04-24T05:22:55.858Z,33.70
2024-04-24T05:23:55.863Z,33.76
2024-04-24T05:24:55.896Z,33.89
2024-04-24T05:25:55.913Z,34.06
2024-04-24T05:26:55.898Z,34.32
2024-04-24T05:27:55.913Z,34.52
2024-04-24T05:28:58.512Z,34.85
2024-04-24T05:29:56.151Z,34.75
2024-04-24T05:30:56.237Z,34.93
2024-04-24T05:31:56.317Z,34.83
2024-04-24T05:32:56.523Z,34.77
2024-04-24T05:33:56.577Z,34.89
2024-04-24T05:34:56.659Z,34.91
2024-04-24T05:35:56.612Z,34.94
2024-04-24T05:36:56.682Z,34.91
2024-04-24T05:37:56.776Z,34.95
2024-04-24T05:38:56.844Z,34.89
2024-04-24T05:39:56.912Z,34.94
2024-04-24T05:40:56.994Z,34.89
2024-04-24T05:41:57.004Z,34.92
2024-04-24T05:42:57.082Z,34.91
2024-04-24T05:43:57.236Z,34.95
2024-04-24T05:44:57.142Z,34.90
2024-04-24T05:45:57.191Z,34.95
2024-04-24T05:46:57.240Z,34.94
2024-04-24T05:47:57.365Z,34.96
2024-04-24T05:48:57.370Z,34.96
2024-04-24T05:49:57.408Z,34.95
2024-04-24T05:50:57.358Z,34.91
2024-04-24T05:51:57.418Z,34.87
2024-04-24T05:52:57.507Z,34.90
2024-04-24T05:53:57.498Z,34.87
2024-04-24T05:54:57.558Z,34.86
2024-04-24T05:55:57.566Z,34.86
2024-04-24T05:56:57.633Z,34.88
2024-04-24T05:57:57.672Z,34.90
2024-04-24T05:58:57.796Z,34.86
2024-04-24T05:59:57.819Z,34.86
2024-04-24T06:00:58.581Z,34.81
2024-04-24T06:01:57.973Z,34.84
2024-04-24T06:02:57.961Z,34.86
2024-04-24T06:03:58.009Z,34.90
2024-04-24T06:04:58.088Z,34.88
2024-04-24T06:05:58.107Z,34.89
2024-04-24T06:06:58.194Z,34.95
2024-04-24T06:07:58.217Z,34.90
2024-04-24T06:08:58.252Z,34.89
2024-04-24T06:09:58.942Z,34.92
2024-04-24T06:10:58.419Z,34.93
2024-04-24T06:11:58.500Z,34.92
2024-04-24T06:12:58.488Z,34.93
2024-04-24T06:13:58.622Z,34.97
2024-04-24T06:14:59.442Z,34.92
2024-04-24T06:15:58.669Z,34.92
2024-04-24T06:16:58.731Z,34.98
2024-04-24T06:17:58.879Z,34.93
2024-04-24T06:18:58.883Z,34.98
2024-04-24T06:19:58.894Z,34.92
2024-04-24T06:20:58.929Z,34.93
2024-04-24T06:21:58.953Z,34.98
2024-04-24T06:22:59.018Z,35.03
2024-04-24T06:23:59.045Z,34.99
2024-04-24T06:24:59.058Z,35.59
2024-04-24T06:25:59.103Z,35.60
2024-04-24T06:26:59.144Z,34.34
2024-04-24T06:27:59.189Z,32.39
2024-04-24T06:28:59.218Z,31.51
2024-04-24T06:29:59.228Z,31.45
2024-04-24T06:30:59.295Z,31.35
2024-04-24T06:31:59.431Z,31.27
2024-04-24T06:32:59.524Z,30.64
2024-04-24T06:33:59.565Z,30.53
2024-04-24T06:34:59.697Z,30.83
2024-04-24T06:35:59.750Z,30.42
2024-04-24T06:36:59.829Z,30.11
2024-04-24T06:37:59.886Z,30.54
2024-04-24T06:38:59.961Z,30.94
2024-04-24T06:40:00.062Z,31.07
2024-04-24T06:41:00.153Z,31.13
2024-04-24T06:42:00.170Z,32.03
2024-04-24T06:43:00.246Z,32.98
2024-04-24T06:44:00.322Z,33.33
2024-04-24T06:45:00.329Z,33.58
2024-04-24T06:46:00.296Z,33.71
2024-04-24T06:47:00.415Z,33.91
2024-04-24T06:48:00.499Z,34.10
2024-04-24T06:49:00.956Z,34.45
2024-04-24T06:50:00.620Z,34.55
2024-04-24T06:51:00.604Z,34.92
2024-04-24T06:52:00.676Z,34.91
2024-04-24T06:53:00.700Z,35.04
2024-04-24T06:54:00.711Z,35.16
2024-04-24T06:55:00.739Z,35.35
2024-04-24T06:56:00.792Z,35.35
2024-04-24T06:57:00.806Z,35.50
2024-04-24T06:58:01.183Z,35.63
2024-04-24T06:59:00.892Z,35.70
2024-04-24T07:00:00.884Z,35.81
2024-04-24T07:01:00.963Z,36.04
2024-04-24T07:02:00.981Z,36.03
2024-04-24T07:03:00.932Z,36.24
2024-04-24T07:04:00.910Z,36.30
2024-04-24T07:05:01.522Z,36.87
2024-04-24T07:06:00.899Z,36.78
2024-04-24T07:07:00.894Z,36.75
2024-04-24T07:08:00.980Z,36.82
2024-04-24T07:09:00.932Z,37.06
2024-04-24T07:10:00.924Z,37.22
2024-04-24T07:11:01.055Z,37.30
2024-04-24T07:12:01.037Z,37.47
2024-04-24T07:13:01.010Z,37.56
2024-04-24T07:14:01.120Z,37.74
2024-04-24T07:15:01.130Z,37.79
2024-04-24T07:16:01.147Z,37.84
2024-04-24T07:17:01.212Z,38.16
2024-04-24T07:18:01.466Z,38.26
2024-04-24T07:19:01.366Z,38.53
2024-04-24T07:20:01.235Z,39.01
2024-04-24T07:21:01.252Z,38.85
2024-04-24T07:22:01.236Z,38.86
2024-04-24T07:23:01.256Z,39.25
2024-04-24T07:24:01.237Z,39.32
2024-04-24T07:25:01.254Z,39.22
2024-04-24T07:26:01.321Z,39.16
2024-04-24T07:27:01.351Z,39.47
2024-04-24T07:28:02.083Z,39.54
2024-04-24T07:29:01.519Z,39.48
2024-04-24T07:30:01.557Z,39.64
2024-04-24T07:31:02.683Z,39.92
2024-04-24T07:32:01.656Z,39.92
2024-04-24T07:33:01.665Z,40.10
2024-04-24T07:34:01.849Z,40.20
2024-04-24T07:35:01.734Z,40.31
2024-04-24T07:36:03.870Z,40.42
2024-04-24T07:37:01.750Z,40.58
2024-04-24T07:38:01.754Z,40.62
2024-04-24T07:39:02.556Z,40.68
2024-04-24T07:40:01.739Z,40.80
2024-04-24T07:41:01.707Z,40.93
2024-04-24T07:42:01.730Z,40.96
2024-04-24T07:43:01.673Z,41.08
2024-04-24T07:44:01.697Z,41.24
2024-04-24T07:45:01.644Z,41.23
2024-04-24T07:46:01.639Z,41.30
2024-04-24T07:47:04.258Z,41.46
2024-04-24T07:48:01.747Z,41.66
2024-04-24T07:49:01.631Z,41.69
2024-04-24T07:50:01.619Z,41.87
2024-04-24T07:51:01.613Z,41.80
2024-04-24T07:52:01.623Z,41.99
2024-04-24T07:53:01.552Z,41.96
2024-04-24T07:54:01.518Z,42.08
2024-04-24T07:55:01.544Z,42.29
2024-04-24T07:56:01.518Z,42.33
2024-04-24T07:57:01.482Z,42.29
2024-04-24T07:58:01.462Z,42.47
2024-04-24T07:59:01.534Z,42.61
2024-04-24T08:00:01.455Z,42.57
2024-04-24T08:01:01.491Z,42.63
2024-04-24T08:02:01.462Z,42.74
2024-04-24T08:03:01.479Z,42.74
2024-04-24T08:04:01.395Z,42.86
2024-04-24T08:05:01.418Z,42.86
2024-04-24T08:06:01.348Z,42.83
2024-04-24T08:07:01.333Z,43.05
2024-04-24T08:08:01.350Z,43.29
2024-04-24T08:09:01.349Z,40.18
2024-04-24T08:10:01.303Z,38.08
2024-04-24T08:11:01.433Z,38.02
2024-04-24T08:12:01.400Z,36.25
2024-04-24T08:13:01.288Z,34.79
2024-04-24T08:14:01.383Z,36.36
2024-04-24T08:15:02.115Z,36.35
2024-04-24T08:16:01.412Z,35.30
2024-04-24T08:17:01.319Z,33.98
2024-04-24T08:18:01.360Z,33.68
2024-04-24T08:19:01.329Z,34.32
2024-04-24T08:20:01.401Z,34.64
2024-04-24T08:21:01.359Z,34.84
2024-04-24T08:22:01.382Z,35.36
2024-04-24T08:23:01.484Z,35.67
2024-04-24T08:24:01.367Z,36.43
2024-04-24T08:25:01.365Z,36.67
2024-04-24T08:26:01.359Z,36.96
2024-04-24T08:27:01.335Z,37.27
2024-04-24T08:28:01.337Z,37.40
2024-04-24T08:29:01.336Z,37.53
2024-04-24T08:30:01.346Z,37.41
2024-04-24T08:31:01.316Z,37.54
2024-04-24T08:32:01.335Z,37.56
2024-04-24T08:33:01.382Z,37.49
2024-04-24T08:34:01.426Z,37.65
2024-04-24T08:35:01.315Z,37.79
2024-04-24T08:36:01.251Z,37.70
2024-04-24T08:37:01.251Z,37.69
2024-04-24T08:38:01.305Z,37.78
2024-04-24T08:39:01.693Z,37.80
2024-04-24T08:40:01.226Z,37.87
2024-04-24T08:41:01.267Z,37.90
2024-04-24T08:42:01.265Z,38.05
2024-04-24T08:43:01.305Z,38.06
2024-04-24T08:44:01.385Z,38.13
2024-04-24T08:45:01.389Z,38.19
2024-04-24T08:46:01.457Z,38.29
2024-04-24T08:47:01.524Z,38.40
2024-04-24T08:48:01.652Z,38.46
2024-04-24T08:49:01.833Z,38.56
2024-04-24T08:50:01.784Z,38.48
2024-04-24T08:51:01.738Z,38.55
2024-04-24T08:52:01.786Z,38.71
2024-04-24T08:53:01.855Z,38.72
2024-04-24T08:54:01.916Z,38.82
2024-04-24T08:55:01.958Z,39.07
2024-04-24T08:56:02.034Z,39.08
2024-04-24T08:57:02.113Z,39.03
2024-04-24T08:58:02.113Z,39.18
2024-04-24T08:59:02.665Z,39.37
2024-04-24T09:00:03.114Z,39.52
2024-04-24T09:01:02.318Z,39.53
2024-04-24T09:02:03.025Z,39.60
2024-04-24T09:03:02.496Z,39.70
2024-04-24T09:04:02.483Z,40.10
2024-04-24T09:05:02.508Z,40.14
2024-04-24T09:06:02.491Z,40.24
2024-04-24T09:07:02.509Z,40.55
2024-04-24T09:08:02.584Z,40.52
2024-04-24T09:09:02.578Z,40.82
2024-04-24T09:10:02.591Z,41.07
2024-04-24T09:11:02.687Z,40.81
2024-04-24T09:12:02.683Z,41.37
2024-04-24T09:13:02.689Z,41.33
2024-04-24T09:14:02.761Z,41.42
2024-04-24T09:15:02.813Z,41.54
2024-04-24T09:16:02.777Z,41.72
2024-04-24T09:17:02.838Z,41.63
2024-04-24T09:18:02.992Z,41.23
2024-04-24T09:19:03.065Z,39.60
2024-04-24T09:20:02.991Z,38.71
2024-04-24T09:21:03.584Z,37.29
2024-04-24T09:22:03.012Z,35.66
2024-04-24T09:23:03.022Z,37.09
2024-04-24T09:24:03.092Z,37.21
2024-04-24T09:25:03.071Z,37.97
2024-04-24T09:26:03.150Z,38.11
2024-04-24T09:27:03.095Z,38.35
2024-04-24T09:28:03.144Z,38.51
2024-04-24T09:29:03.739Z,38.71
2024-04-24T09:30:04.239Z,38.79
2024-04-24T09:31:03.064Z,38.82
2024-04-24T09:32:03.184Z,39.03
2024-04-24T09:33:03.162Z,39.15
2024-04-24T09:34:03.069Z,39.23
2024-04-24T09:35:03.135Z,39.34
2024-04-24T09:36:03.078Z,39.53
2024-04-24T09:37:04.053Z,39.51
2024-04-24T09:38:03.183Z,39.27
2024-04-24T09:39:03.248Z,39.66
2024-04-24T09:40:03.271Z,39.77
2024-04-24T09:41:03.351Z,39.92
2024-04-24T09:42:03.391Z,40.00
2024-04-24T09:43:03.470Z,40.08
2024-04-24T09:44:03.605Z,40.20
2024-04-24T09:45:03.573Z,40.22
2024-04-24T09:46:03.579Z,40.33
2024-04-24T09:47:03.710Z,40.56
2024-04-24T09:48:03.822Z,40.71
2024-04-24T09:49:03.792Z,40.82
2024-04-24T09:50:04.539Z,40.80
2024-04-24T09:51:03.813Z,41.00
2024-04-24T09:52:03.843Z,41.22
2024-04-24T09:53:04.005Z,41.16
2024-04-24T09:54:03.940Z,41.26
2024-04-24T09:55:03.977Z,41.27
2024-04-24T09:56:04.127Z,41.35
2024-04-24T09:57:04.071Z,41.39
2024-04-24T09:58:05.115Z,41.58
2024-04-24T09:59:04.194Z,41.59
2024-04-24T10:00:05.131Z,41.74
2024-04-24T10:01:05.147Z,41.75
2024-04-24T10:02:04.319Z,41.80
2024-04-24T10:03:04.357Z,41.95
2024-04-24T10:04:04.347Z,42.02
2024-04-24T10:05:04.453Z,42.01
2024-04-24T10:06:04.454Z,42.08
2024-04-24T10:07:04.435Z,42.33
2024-04-24T10:08:05.123Z,42.53
2024-04-24T10:09:04.489Z,42.58
2024-04-24T10:10:04.553Z,42.43
2024-04-24T10:11:04.656Z,42.32
2024-04-24T10:12:05.227Z,42.07
2024-04-24T10:13:04.580Z,41.69
2024-04-24T10:14:04.730Z,41.50
2024-04-24T10:15:04.699Z,41.44
2024-04-24T10:16:04.737Z,41.31
2024-04-24T10:17:04.815Z,41.17
2024-04-24T10:18:04.968Z,41.05
2024-04-24T10:19:04.991Z,41.10
2024-04-24T10:20:12.092Z,41.50
2024-04-24T10:21:06.045Z,41.50
2024-04-24T10:22:04.940Z,41.51
2024-04-24T10:23:04.919Z,41.59
2024-04-24T10:24:04.918Z,41.56
2024-04-24T10:25:04.860Z,41.58
2024-04-24T10:26:04.865Z,41.50
2024-04-24T10:27:04.882Z,41.49
2024-04-24T10:28:04.824Z,41.46
2024-04-24T10:29:04.856Z,41.38
2024-04-24T10:30:04.821Z,41.44
2024-04-24T10:31:04.807Z,41.39
2024-04-24T10:32:04.929Z,41.33
2024-04-24T10:33:04.939Z,41.37
2024-04-24T10:34:05.774Z,41.33
2024-04-24T10:35:04.812Z,41.28
2024-04-24T10:36:04.747Z,41.30
2024-04-24T10:37:06.555Z,41.28
2024-04-24T10:38:04.824Z,41.23
2024-04-24T10:39:04.747Z,41.18
2024-04-24T10:40:04.765Z,41.18
2024-04-24T10:41:04.843Z,41.17
2024-04-24T10:42:04.788Z,41.14
2024-04-24T10:43:04.798Z,41.10
2024-04-24T10:44:04.843Z,41.07
2024-04-24T10:45:04.857Z,41.02
2024-04-24T10:46:04.901Z,41.00
2024-04-24T10:47:04.896Z,40.96
2024-04-24T10:48:04.921Z,40.93
2024-04-24T10:49:04.925Z,40.93
2024-04-24T10:50:04.941Z,40.83
2024-04-24T10:51:04.949Z,40.84
2024-04-24T10:52:04.980Z,40.82
2024-04-24T10:53:05.040Z,40.77
2024-04-24T10:54:05.057Z,40.77
2024-04-24T10:55:07.041Z,40.73
2024-04-24T10:56:05.030Z,40.61
2024-04-24T10:57:05.008Z,40.58
2024-04-24T10:58:05.015Z,40.52
2024-04-24T10:59:05.237Z,40.55
2024-04-24T11:00:04.995Z,40.39
2024-04-24T11:01:05.002Z,40.39
2024-04-24T11:02:05.027Z,40.37
2024-04-24T11:03:05.136Z,40.35
2024-04-24T11:04:04.996Z,40.30
2024-04-24T11:05:05.179Z,40.26
2024-04-24T11:06:05.017Z,40.19
2024-04-24T11:07:04.926Z,40.19
2024-04-24T11:08:05.002Z,40.18
2024-04-24T11:09:04.917Z,40.16
2024-04-24T11:10:05.636Z,40.14
2024-04-24T11:11:04.958Z,40.10
2024-04-24T11:12:05.164Z,40.06
2024-04-24T11:13:04.887Z,40.01
2024-04-24T11:14:04.909Z,39.99
2024-04-24T11:15:04.863Z,39.94
2024-04-24T11:16:10.177Z,39.90
2024-04-24T11:17:04.922Z,39.90
2024-04-24T11:18:04.923Z,39.85
2024-04-24T11:19:04.844Z,39.85
2024-04-24T11:20:04.861Z,39.78
2024-04-24T11:21:04.828Z,39.78
2024-04-24T11:22:04.819Z,39.73
2024-04-24T11:23:04.838Z,39.68
2024-04-24T11:24:04.813Z,39.63
2024-04-24T11:25:04.787Z,39.59
2024-04-24T11:26:04.838Z,39.49
2024-04-24T11:27:04.773Z,39.49
2024-04-24T11:28:04.753Z,39.42
2024-04-24T11:29:04.795Z,39.37
2024-04-24T11:30:04.738Z,39.32
2024-04-24T11:31:07.099Z,39.29
2024-04-24T11:32:05.739Z,39.27
2024-04-24T11:33:04.827Z,39.23
2024-04-24T11:34:04.851Z,39.16
2024-04-24T11:35:04.714Z,39.22
2024-04-24T11:36:04.685Z,39.14
2024-04-24T11:37:04.677Z,39.11
2024-04-24T11:38:04.680Z,39.07
2024-04-24T11:39:04.655Z,39.02
2024-04-24T11:40:04.644Z,39.04
2024-04-24T11:41:04.656Z,39.00
2024-04-24T11:42:04.626Z,38.95
2024-04-24T11:43:04.617Z,38.93
2024-04-24T11:44:04.609Z,38.93
2024-04-24T11:45:04.597Z,38.91
2024-04-24T11:46:04.588Z,38.92
2024-04-24T11:47:04.610Z,38.91
2024-04-24T11:48:04.972Z,38.89
2024-04-24T11:49:04.641Z,38.88
2024-04-24T11:50:04.606Z,38.83
2024-04-24T11:51:04.569Z,38.82
2024-04-24T11:52:04.563Z,38.88
2024-04-24T11:53:04.757Z,38.84
2024-04-24T11:54:04.563Z,38.82
2024-04-24T11:55:04.559Z,38.76
2024-04-24T11:56:04.566Z,38.77
2024-04-24T11:57:04.555Z,38.76
2024-04-24T11:58:04.544Z,38.76
2024-04-24T11:59:04.604Z,38.73
2024-04-24T12:00:04.547Z,38.74
2024-04-24T12:01:04.538Z,38.69
2024-04-24T12:02:04.600Z,38.68
2024-04-24T12:03:04.553Z,38.67
2024-04-24T12:04:04.514Z,38.62
2024-04-24T12:05:04.540Z,38.59
2024-04-24T12:06:04.501Z,38.65
2024-04-24T12:07:04.523Z,38.61
2024-04-24T12:08:04.541Z,38.56
2024-04-24T12:09:04.496Z,38.53
2024-04-24T12:10:04.484Z,38.57
2024-04-24T12:11:04.524Z,38.54
2024-04-24T12:12:04.537Z,38.58
2024-04-24T12:13:04.462Z,38.56
2024-04-24T12:14:04.468Z,38.53
2024-04-24T12:15:04.435Z,38.49
2024-04-24T12:16:04.486Z,38.48
2024-04-24T12:17:04.475Z,38.46
2024-04-24T12:18:04.478Z,38.38
2024-04-24T12:19:04.433Z,38.40
2024-04-24T12:20:06.799Z,38.39
2024-04-24T12:21:04.458Z,38.29
2024-04-24T12:22:04.423Z,38.33
2024-04-24T12:23:04.455Z,38.35
2024-04-24T12:24:04.409Z,38.31
2024-04-24T12:25:04.399Z,38.32
2024-04-24T12:26:04.431Z,38.35
2024-04-24T12:27:04.379Z,38.27
2024-04-24T12:28:04.372Z,38.27
2024-04-24T12:29:04.415Z,38.27
2024-04-24T12:30:04.350Z,38.29
2024-04-24T12:31:04.350Z,38.28
2024-04-24T12:32:04.547Z,38.24
2024-04-24T12:33:04.428Z,38.24
2024-04-24T12:34:04.459Z,38.31
2024-04-24T12:35:04.317Z,38.31
2024-04-24T12:36:04.339Z,38.26
2024-04-24T12:37:04.292Z,38.24
2024-04-24T12:38:04.319Z,38.21
2024-04-24T12:39:04.276Z,38.22
2024-04-24T12:40:04.273Z,38.16
2024-04-24T12:41:04.277Z,38.16
2024-04-24T12:42:04.249Z,38.16
2024-04-24T12:43:04.266Z,38.12
2024-04-24T12:44:04.251Z,38.14
2024-04-24T12:45:04.250Z,38.17
2024-04-24T12:46:04.272Z,38.13
2024-04-24T12:47:04.276Z,38.09
2024-04-24T12:48:04.271Z,38.07
2024-04-24T12:49:04.329Z,38.07
2024-04-24T12:50:04.283Z,38.04
2024-04-24T12:51:04.199Z,37.99
2024-04-24T12:52:04.199Z,37.97
2024-04-24T12:53:04.330Z,38.01